Time;durP1;ratioP1;P1;durP2;ratioP2;P2;SDS_P1;SDS_P2;PMS_P1;PMS_P2;Temp;Humidity;BMP_temperature;BMP_pressure;BME280_temperature;BME280_humidity;BME280_pressure;Samples;Min_cycle;Max_cycle;Signal;HPM_P1;HPM_P2
2023/09/13 00:00:10;;;;;;;6.60;6.03;;;25.70;94.10;;;;;;4973197;28;20445;-72
2023/09/13 00:02:40;;;;;;;7.37;6.67;;;25.70;94.00;;;;;;4981027;28;20506;-72
2023/09/13 00:05:08;;;;;;;6.53;5.93;;;25.70;94.00;;;;;;4981906;28;20556;-72
2023/09/13 00:07:40;;;;;;;6.87;6.27;;;25.70;94.00;;;;;;4982551;28;20461;-72
2023/09/13 00:10:07;;;;;;;7.37;6.77;;;25.70;94.10;;;;;;4981011;28;20457;-72
2023/09/13 00:12:37;;;;;;;6.70;6.20;;;25.60;94.00;;;;;;4951304;28;20543;-72
2023/09/13 00:15:07;;;;;;;6.87;6.27;;;25.60;94.10;;;;;;4981910;28;20563;-72
2023/09/13 00:17:35;;;;;;;6.90;6.20;;;25.60;94.10;;;;;;4982479;28;21236;-72
2023/09/13 00:20:07;;;;;;;7.10;6.30;;;25.60;94.10;;;;;;4961584;28;20462;-72
2023/09/13 00:22:38;;;;;;;6.70;6.20;;;25.60;94.00;;;;;;4962296;28;20429;-73
2023/09/13 00:25:05;;;;;;;6.70;6.20;;;25.60;94.20;;;;;;4971273;28;20441;-73
2023/09/13 00:27:36;;;;;;;6.27;5.67;;;25.60;94.20;;;;;;4979341;28;21348;-73
2023/09/13 00:30:08;;;;;;;6.90;6.33;;;25.60;94.20;;;;;;4978074;28;20437;-73
2023/09/13 00:32:45;;;;;;;7.53;6.93;;;25.60;94.10;;;;;;4978386;28;20465;-73
2023/09/13 00:35:12;;;;;;;6.73;6.13;;;25.60;94.20;;;;;;4961830;28;20463;-73
2023/09/13 00:37:47;;;;;;;6.63;6.00;;;25.50;94.10;;;;;;4963169;28;20461;-73
2023/09/13 00:40:14;;;;;;;7.30;6.70;;;25.50;94.10;;;;;;4945856;28;20441;-73
2023/09/13 00:42:44;;;;;;;5.97;5.50;;;25.50;94.20;;;;;;4962826;28;20457;-73
2023/09/13 00:45:11;;;;;;;7.03;6.43;;;25.50;94.20;;;;;;4978741;28;20482;-73
2023/09/13 00:47:39;;;;;;;6.53;6.03;;;25.50;94.30;;;;;;4961571;28;20439;-73
2023/09/13 00:50:09;;;;;;;7.43;6.50;;;25.50;94.00;;;;;;4946328;28;20448;-73
2023/09/13 00:52:41;;;;;;;7.00;6.33;;;25.50;94.10;;;;;;4962019;28;20475;-73
2023/09/13 00:55:09;;;;;;;7.17;6.30;;;25.50;94.10;;;;;;4977492;28;20539;-73
2023/09/13 00:57:37;;;;;;;6.33;5.83;;;25.50;94.10;;;;;;4961679;28;20433;-73
2023/09/13 01:00:10;;;;;;;6.67;6.07;;;25.40;94.20;;;;;;4962153;28;20440;-73
2023/09/13 01:02:42;;;;;;;6.83;6.33;;;25.50;94.20;;;;;;5077384;23;20492;-70
2023/09/13 01:05:12;;;;;;;7.13;6.53;;;25.40;94.10;;;;;;4969441;28;20456;-70
2023/09/13 01:07:40;;;;;;;6.90;6.30;;;25.40;94.10;;;;;;4964650;28;20444;-71
2023/09/13 01:10:10;;;;;;;6.77;6.17;;;25.40;94.20;;;;;;4980335;28;20430;-71
2023/09/13 01:12:38;;;;;;;6.53;5.97;;;25.40;94.20;;;;;;4945664;28;20476;-71
2023/09/13 01:15:08;;;;;;;6.53;6.00;;;25.40;94.20;;;;;;4961837;28;20505;-72
2023/09/13 01:17:39;;;;;;;6.33;5.83;;;25.40;94.20;;;;;;4960797;28;20950;-70
2023/09/13 01:20:39;;;;;;;6.37;5.50;;;25.40;94.20;;;;;;4970138;28;20456;-71
2023/09/13 01:23:39;;;;;;;6.60;6.10;;;25.40;94.10;;;;;;4964042;28;20444;-72
2023/09/13 01:26:36;;;;;;;6.40;5.80;;;25.40;94.10;;;;;;4981775;28;20441;-71
2023/09/13 01:29:08;;;;;;;7.33;6.63;;;25.30;94.00;;;;;;4977251;28;21091;-70
2023/09/13 01:31:38;;;;;;;6.27;5.77;;;25.30;94.10;;;;;;4980308;28;21259;-71
2023/09/13 01:34:05;;;;;;;6.80;6.20;;;25.30;94.00;;;;;;4948195;28;20437;-71
2023/09/13 01:36:33;;;;;;;6.07;5.50;;;25.30;94.10;;;;;;4980649;28;20706;-70
2023/09/13 01:39:00;;;;;;;6.40;5.90;;;25.30;94.10;;;;;;4979493;28;20787;-71
2023/09/13 01:41:31;;;;;;;6.70;6.03;;;25.30;94.40;;;;;;4980153;28;20437;-71
2023/09/13 01:43:59;;;;;;;7.50;6.77;;;25.30;94.40;;;;;;4979886;28;20528;-71
2023/09/13 01:46:33;;;;;;;6.83;6.23;;;25.30;94.30;;;;;;4980063;28;20424;-71
2023/09/13 01:49:02;;;;;;;7.73;6.60;;;25.30;94.20;;;;;;4980511;28;20467;-71
2023/09/13 01:51:28;;;;;;;7.00;6.40;;;25.30;94.20;;;;;;4948450;28;20437;-72
2023/09/13 01:53:55;;;;;;;6.67;6.13;;;25.20;94.30;;;;;;4996470;28;20440;-70
2023/09/13 01:56:21;;;;;;;7.73;7.00;;;25.20;94.60;;;;;;4980824;28;20432;-72
2023/09/13 01:58:51;;;;;;;5.97;5.40;;;25.20;94.20;;;;;;4996944;28;21367;-72
2023/09/13 02:01:22;;;;;;;7.37;6.77;;;25.20;94.20;;;;;;4996525;28;20429;-72
2023/09/13 02:03:51;;;;;;;7.70;6.70;;;25.20;94.20;;;;;;4997218;28;20421;-70
2023/09/13 02:06:21;;;;;;;8.00;7.27;;;25.20;94.10;;;;;;4981003;28;20413;-71
2023/09/13 02:08:47;;;;;;;7.30;6.60;;;25.20;94.10;;;;;;4997050;28;20425;-72
2023/09/13 02:11:15;;;;;;;7.63;6.83;;;25.20;94.20;;;;;;4982118;28;20424;-71
2023/09/13 02:13:41;;;;;;;7.93;7.20;;;25.20;94.30;;;;;;4998808;28;20440;-72
2023/09/13 02:16:11;;;;;;;8.67;7.83;;;25.20;94.40;;;;;;4983064;28;20558;-71
2023/09/13 02:18:40;;;;;;;7.90;7.20;;;25.20;94.40;;;;;;4963846;28;20473;-71
2023/09/13 02:21:06;;;;;;;8.63;7.83;;;25.20;94.50;;;;;;4996386;28;20473;-71
2023/09/13 02:23:35;;;;;;;8.43;7.73;;;25.10;94.40;;;;;;4981675;28;20509;-70
2023/09/13 02:26:01;;;;;;;9.10;7.90;;;25.10;94.80;;;;;;4985496;28;21295;-72
2023/09/13 02:28:28;;;;;;;8.23;7.53;;;25.10;94.40;;;;;;4976949;28;20422;-72
2023/09/13 02:30:54;;;;;;;8.40;7.60;;;25.10;94.50;;;;;;4963049;28;20573;-71
2023/09/13 02:33:23;;;;;;;8.03;7.10;;;25.10;94.40;;;;;;4985018;28;20185;-71
2023/09/13 02:35:52;;;;;;;9.37;8.47;;;25.10;94.30;;;;;;4980360;28;21084;-70
2023/09/13 02:38:21;;;;;;;9.40;8.60;;;25.10;94.40;;;;;;4990059;28;20471;-72
2023/09/13 02:40:48;;;;;;;9.07;7.97;;;25.10;94.50;;;;;;5002106;28;20984;-70
2023/09/13 02:43:16;;;;;;;9.23;8.33;;;25.10;94.50;;;;;;5001780;28;20424;-72
2023/09/13 02:45:44;;;;;;;9.10;8.20;;;25.00;94.50;;;;;;4973706;28;20448;-71
2023/09/13 02:48:11;;;;;;;10.00;9.00;;;25.00;94.50;;;;;;4967394;28;20460;-71
2023/09/13 02:50:41;;;;;;;9.90;9.00;;;25.00;94.50;;;;;;4983593;28;20464;-71
2023/09/13 02:53:08;;;;;;;9.47;8.57;;;25.00;94.50;;;;;;4968888;28;20422;-71
2023/09/13 02:55:35;;;;;;;10.50;9.40;;;25.00;94.50;;;;;;4967144;28;20477;-71
2023/09/13 02:58:01;;;;;;;9.87;8.90;;;25.00;94.60;;;;;;4967351;28;20468;-71
2023/09/13 03:00:27;;;;;;;11.67;10.43;;;25.00;94.60;;;;;;4933100;28;20452;-74
2023/09/13 03:02:55;;;;;;;10.90;9.80;;;25.00;94.70;;;;;;4975636;28;20980;-73
2023/09/13 03:05:24;;;;;;;11.40;10.30;;;25.00;94.60;;;;;;4964819;28;20491;-74
2023/09/13 03:07:56;;;;;;;10.03;9.10;;;25.00;94.60;;;;;;4982544;28;20436;-71
2023/09/13 03:10:27;;;;;;;10.97;9.97;;;25.00;94.50;;;;;;4983068;28;20449;-71
2023/09/13 03:12:53;;;;;;;11.43;10.23;;;24.90;94.50;;;;;;4966676;28;20433;-70
2023/09/13 03:15:22;;;;;;;10.47;9.57;;;24.90;94.50;;;;;;4966247;28;20448;-70
2023/09/13 03:17:48;;;;;;;11.07;10.07;;;24.90;94.50;;;;;;4966027;28;20997;-70
2023/09/13 03:20:14;;;;;;;10.60;9.53;;;24.90;94.50;;;;;;4982579;28;20452;-70
2023/09/13 03:22:41;;;;;;;10.47;9.40;;;24.90;94.50;;;;;;4998369;28;20414;-72
2023/09/13 03:25:10;;;;;;;11.10;10.17;;;24.90;94.50;;;;;;4983220;28;20421;-71
2023/09/13 03:27:36;;;;;;;10.60;9.63;;;24.90;94.50;;;;;;4982621;28;20421;-71
2023/09/13 03:30:09;;;;;;;10.93;9.70;;;24.90;94.50;;;;;;4982887;28;20444;-72
2023/09/13 03:32:35;;;;;;;12.43;11.23;;;24.90;94.60;;;;;;4990414;28;20453;-72
2023/09/13 03:35:05;;;;;;;11.90;10.77;;;24.90;94.60;;;;;;4982644;28;20418;-71
2023/09/13 03:37:33;;;;;;;14.47;11.13;;;24.90;94.50;;;;;;4982808;28;20449;-70
2023/09/13 03:40:02;;;;;;;12.27;11.03;;;24.90;94.50;;;;;;4966698;28;20460;-71
2023/09/13 03:42:32;;;;;;;11.70;10.60;;;24.90;94.50;;;;;;4965192;28;20442;-71
2023/09/13 03:45:01;;;;;;;12.37;11.17;;;24.90;94.50;;;;;;4952541;28;20464;-71
2023/09/13 03:47:28;;;;;;;11.20;10.17;;;24.80;94.40;;;;;;4982803;28;20428;-72
2023/09/13 03:49:57;;;;;;;11.37;10.27;;;24.80;94.50;;;;;;4966371;28;21159;-70
2023/09/13 03:52:27;;;;;;;10.83;9.80;;;24.80;94.40;;;;;;4949733;28;20457;-72
2023/09/13 03:54:53;;;;;;;10.50;9.60;;;24.80;94.50;;;;;;4965994;28;20413;-72
2023/09/13 03:57:19;;;;;;;12.83;11.43;;;24.80;94.50;;;;;;4981692;28;20502;-72
2023/09/13 03:59:52;;;;;;;12.17;11.00;;;24.80;94.60;;;;;;4982058;28;20507;-71
2023/09/13 04:02:18;;;;;;;15.77;11.63;;;24.80;94.70;;;;;;4982401;28;20560;-71
2023/09/13 04:04:45;;;;;;;13.20;11.27;;;24.80;94.70;;;;;;4998519;28;20524;-72
2023/09/13 04:07:10;;;;;;;12.70;11.50;;;24.80;94.70;;;;;;4982751;28;20433;-72
2023/09/13 04:09:37;;;;;;;13.70;12.30;;;24.80;94.60;;;;;;4981649;28;21057;-71
2023/09/13 04:12:07;;;;;;;12.53;11.43;;;24.70;94.60;;;;;;4983329;28;20560;-70
2023/09/13 04:14:33;;;;;;;14.10;12.00;;;24.70;94.50;;;;;;4997922;28;20456;-71
2023/09/13 04:17:00;;;;;;;13.73;12.20;;;24.70;94.50;;;;;;4966912;28;20421;-71
2023/09/13 04:19:27;;;;;;;12.60;11.40;;;24.70;94.50;;;;;;4949708;28;20546;-74
2023/09/13 04:21:55;;;;;;;12.43;11.13;;;24.70;94.60;;;;;;4962849;28;20472;-72
2023/09/13 04:24:21;;;;;;;14.87;11.40;;;24.70;94.60;;;;;;4981905;28;21252;-71
2023/09/13 04:26:51;;;;;;;12.10;10.13;;;24.70;94.60;;;;;;4970309;28;20473;-71
2023/09/13 04:29:17;;;;;;;11.33;10.30;;;24.70;94.50;;;;;;4961953;28;20916;-72
2023/09/13 04:31:46;;;;;;;11.63;9.90;;;24.70;94.50;;;;;;4945027;28;20426;-73
2023/09/13 04:34:14;;;;;;;12.87;11.60;;;24.70;94.50;;;;;;4960565;28;20261;-73
2023/09/13 04:36:42;;;;;;;13.07;11.77;;;24.70;94.60;;;;;;4983019;28;20441;-73
2023/09/13 04:39:08;;;;;;;11.43;10.27;;;24.70;94.60;;;;;;4996694;28;21025;-73
2023/09/13 04:41:35;;;;;;;13.20;11.63;;;24.70;94.50;;;;;;4980561;28;20441;-73
2023/09/13 04:44:01;;;;;;;10.47;9.47;;;24.60;94.50;;;;;;4964299;28;20549;-73
2023/09/13 04:46:27;;;;;;;12.43;11.23;;;24.70;94.60;;;;;;4996434;28;20512;-73
2023/09/13 04:48:55;;;;;;;12.33;11.03;;;24.60;94.50;;;;;;4977379;28;20931;-73
2023/09/13 04:51:26;;;;;;;12.37;11.27;;;24.60;94.50;;;;;;4966365;28;20535;-73
2023/09/13 04:53:52;;;;;;;11.57;10.50;;;24.60;94.60;;;;;;4981338;28;20458;-73
2023/09/13 04:56:18;;;;;;;12.50;11.30;;;24.60;94.60;;;;;;4980178;28;21224;-73
2023/09/13 04:58:51;;;;;;;12.10;11.00;;;24.60;94.50;;;;;;4980225;28;20483;-74
2023/09/13 05:01:19;;;;;;;12.33;11.07;;;24.60;94.60;;;;;;4948678;28;21063;-71
2023/09/13 05:03:48;;;;;;;12.50;11.30;;;24.60;94.70;;;;;;4944814;28;20430;-71
2023/09/13 05:06:16;;;;;;;11.43;10.33;;;24.60;94.70;;;;;;4952516;28;20441;-73
2023/09/13 05:08:42;;;;;;;12.07;10.97;;;24.50;94.50;;;;;;4997015;28;20457;-72
2023/09/13 05:11:11;;;;;;;10.90;9.80;;;24.50;94.50;;;;;;4971887;28;20858;-72
2023/09/13 05:13:39;;;;;;;11.70;10.53;;;24.50;94.50;;;;;;4961907;28;20438;-72
2023/09/13 05:16:05;;;;;;;12.50;11.30;;;24.50;94.50;;;;;;4969882;28;20477;-72
2023/09/13 05:18:34;;;;;;;11.20;10.10;;;24.50;94.50;;;;;;4937657;28;20485;-71
2023/09/13 05:21:02;;;;;;;10.97;9.87;;;24.50;94.50;;;;;;4963479;28;20457;-72
2023/09/13 05:23:31;;;;;;;11.83;10.60;;;24.50;94.60;;;;;;4963619;28;20807;-72
2023/09/13 17:27:04;;;;;;;6.37;3.63;;;22.80;99.90;;;;;;5038804;22;20492;-77
2023/09/13 17:29:33;;;;;;;4.73;2.90;;;22.60;99.90;;;;;;5043720;28;20468;-72
2023/09/13 17:32:00;;;;;;;7.30;3.77;;;22.80;99.90;;;;;;5022920;28;20443;-72
2023/09/13 17:34:30;;;;;;;6.43;3.13;;;22.80;99.90;;;;;;5022371;28;20579;-73
2023/09/13 17:37:01;;;;;;;6.43;3.43;;;22.80;99.90;;;;;;5017112;28;20458;-69
2023/09/13 17:39:30;;;;;;;3.70;3.40;;;22.90;99.90;;;;;;5018875;28;20510;-75
2023/09/13 17:41:58;;;;;;;5.60;3.33;;;22.90;99.90;;;;;;5018196;28;20438;-75
2023/09/13 17:44:26;;;;;;;7.33;2.63;;;22.90;99.90;;;;;;5019846;28;20768;-73
2023/09/13 17:46:53;;;;;;;3.20;2.67;;;23.00;99.90;;;;;;5019894;28;20498;-72
2023/09/13 17:49:23;;;;;;;4.60;3.03;;;23.00;99.90;;;;;;5007544;28;21195;-73
2023/09/13 17:51:52;;;;;;;4.10;3.37;;;23.00;99.90;;;;;;5024111;28;20415;-74
2023/09/13 17:54:20;;;;;;;5.53;3.07;;;23.00;99.90;;;;;;5022636;28;20843;-73
2023/09/13 17:56:46;;;;;;;4.13;3.53;;;23.00;99.90;;;;;;5020958;28;20426;-72
2023/09/13 17:59:12;;;;;;;5.70;3.73;;;23.00;99.90;;;;;;5004343;28;20506;-70
2023/09/13 18:01:43;;;;;;;4.80;3.07;;;23.10;99.90;;;;;;5035926;28;20430;-73
2023/09/13 18:04:10;;;;;;;3.20;2.90;;;23.00;99.90;;;;;;5045377;28;20430;-71
2023/09/13 18:06:38;;;;;;;4.67;3.40;;;23.00;99.90;;;;;;5009154;28;20547;-71
2023/09/13 18:09:04;;;;;;;3.20;2.73;;;23.10;99.90;;;;;;5045089;28;20442;-70
2023/09/13 18:11:33;;;;;;;4.27;2.80;;;23.00;99.90;;;;;;5039128;28;20495;-72
2023/09/13 18:13:59;;;;;;;3.27;2.97;;;23.10;99.90;;;;;;5060383;28;20430;-72
2023/09/13 18:16:25;;;;;;;4.03;3.20;;;23.10;99.90;;;;;;5067211;28;20448;-73
2023/09/13 18:18:53;;;;;;;6.37;3.00;;;23.10;99.90;;;;;;5050254;28;21060;-73
2023/09/13 18:21:21;;;;;;;2.90;2.70;;;23.10;99.90;;;;;;5058178;28;20449;-73
2023/09/13 18:23:50;;;;;;;3.87;2.80;;;23.10;99.90;;;;;;5024334;28;20463;-72
2023/09/13 18:26:19;;;;;;;4.53;2.90;;;23.00;99.90;;;;;;5037953;28;20710;-73
2023/09/13 18:28:45;;;;;;;5.00;3.30;;;23.00;99.90;;;;;;5043760;28;21020;-73
2023/09/13 18:31:12;;;;;;;4.00;3.27;;;23.00;99.90;;;;;;5029147;28;20831;-72
2023/09/13 18:33:38;;;;;;;3.87;3.57;;;23.00;99.90;;;;;;5024293;28;20493;-71
2023/09/13 18:36:07;;;;;;;3.57;3.23;;;23.00;99.90;;;;;;5023659;28;20431;-72
2023/09/13 18:38:34;;;;;;;3.63;2.77;;;23.00;99.90;;;;;;5022698;28;20455;-75
2023/09/13 18:41:00;;;;;;;3.43;2.97;;;23.00;99.90;;;;;;5021928;28;20500;-77
2023/09/13 18:43:26;;;;;;;3.27;2.97;;;23.00;99.90;;;;;;5020781;28;20411;-77
2023/09/13 18:46:03;;;;;;;3.30;2.60;;;23.00;99.90;;;;;;5021454;28;20451;-77
2023/09/13 18:48:30;;;;;;;4.30;2.53;;;23.00;99.90;;;;;;5006247;28;20197;-77
2023/09/13 18:50:57;;;;;;;6.37;3.53;;;23.00;99.90;;;;;;4997271;28;20972;-76
2023/09/13 18:53:25;;;;;;;3.10;2.80;;;23.00;99.90;;;;;;5036636;28;20514;-76
2023/09/13 18:55:58;;;;;;;3.23;2.80;;;23.00;99.90;;;;;;5023877;28;20441;-77
2023/09/13 18:58:27;;;;;;;4.13;2.90;;;23.00;99.90;;;;;;5009880;28;20438;-77
2023/09/13 19:00:58;;;;;;;4.13;3.10;;;23.00;99.90;;;;;;5022901;28;20827;-76
2023/09/13 19:03:24;;;;;;;3.47;3.00;;;23.00;99.90;;;;;;5003902;28;20432;-76
2023/09/13 19:05:56;;;;;;;4.60;3.10;;;23.00;99.90;;;;;;5030269;28;20552;-76
2023/09/13 19:08:23;;;;;;;3.60;3.00;;;23.00;99.90;;;;;;5002564;28;20450;-76
2023/09/13 19:10:49;;;;;;;4.10;3.30;;;23.00;99.90;;;;;;5003433;28;21025;-76
2023/09/13 19:13:17;;;;;;;5.27;2.93;;;23.00;99.90;;;;;;5035630;28;20443;-76
2023/09/13 19:16:00;;;;;;;4.90;3.33;;;23.00;99.90;;;;;;5003311;28;20442;-77
2023/09/13 19:18:32;;;;;;;3.23;2.93;;;22.90;99.90;;;;;;5002420;28;20431;-77
2023/09/13 19:20:59;;;;;;;3.47;2.93;;;23.00;99.90;;;;;;4996146;28;20736;-77
2023/09/13 19:23:27;;;;;;;3.50;3.20;;;23.00;99.90;;;;;;5005084;28;20477;-77
2023/09/13 19:25:55;;;;;;;3.53;3.23;;;23.00;99.90;;;;;;5022543;28;21088;-77
2023/09/13 19:28:25;;;;;;;3.60;3.27;;;23.00;99.90;;;;;;5041617;28;20451;-77
2023/09/13 19:30:59;;;;;;;4.37;3.10;;;22.90;99.90;;;;;;5051621;28;20496;-77
2023/09/13 19:33:30;;;;;;;3.53;2.87;;;23.00;99.90;;;;;;5004972;28;20442;-77
2023/09/13 19:35:59;;;;;;;3.23;2.60;;;23.00;99.90;;;;;;5041052;28;20779;-75
2023/09/13 19:38:26;;;;;;;4.50;3.17;;;22.90;99.90;;;;;;5004149;28;20442;-74
2023/09/13 19:40:55;;;;;;;3.33;2.57;;;22.90;99.90;;;;;;5022495;28;20442;-77
2023/09/13 19:43:24;;;;;;;2.90;2.60;;;23.00;99.90;;;;;;5029255;28;20442;-77
2023/09/13 19:45:56;;;;;;;3.77;3.47;;;22.90;99.90;;;;;;5054020;28;20426;-77
2023/09/13 19:48:24;;;;;;;4.23;2.93;;;22.90;99.90;;;;;;4988805;28;20854;-75
2023/09/13 19:51:05;;;;;;;4.13;2.80;;;23.00;99.90;;;;;;5011982;28;20437;-75
2023/09/13 19:53:38;;;;;;;3.40;3.10;;;22.90;99.90;;;;;;5005047;28;20447;-74
2023/09/13 19:56:08;;;;;;;5.80;3.10;;;22.90;99.90;;;;;;5058751;28;21104;-75
2023/09/13 19:58:39;;;;;;;3.20;3.00;;;22.90;99.90;;;;;;5003048;28;20571;-74
2023/09/13 20:01:12;;;;;;;4.33;2.83;;;22.90;99.90;;;;;;5004678;28;20569;-74
2023/09/13 20:03:41;;;;;;;5.40;3.17;;;22.90;99.90;;;;;;5003527;28;20894;-77
2023/09/13 20:06:16;;;;;;;4.13;3.00;;;22.80;99.90;;;;;;5021164;28;21249;-77
2023/09/13 20:08:43;;;;;;;3.23;2.93;;;22.80;99.90;;;;;;5045291;28;21130;-77
2023/09/13 20:11:11;;;;;;;2.90;2.70;;;22.90;99.90;;;;;;5046156;28;20562;-77
2023/09/13 20:13:41;;;;;;;3.50;3.20;;;22.90;99.90;;;;;;4994784;28;20499;-77
2023/09/13 20:16:10;;;;;;;4.73;3.40;;;22.90;99.90;;;;;;5009008;28;20476;-76
2023/09/13 20:18:36;;;;;;;4.40;3.10;;;22.90;99.90;;;;;;5043922;28;20497;-77
2023/09/13 20:21:02;;;;;;;5.00;3.10;;;22.80;99.90;;;;;;5056686;28;20891;-76
2023/09/13 20:23:31;;;;;;;4.20;3.00;;;22.80;99.90;;;;;;5022892;28;21310;-77
2023/09/13 20:25:59;;;;;;;3.17;2.50;;;22.90;99.90;;;;;;5015260;28;20456;-77
2023/09/13 20:28:28;;;;;;;5.00;3.10;;;22.90;99.90;;;;;;5019380;28;20414;-77
2023/09/13 20:30:59;;;;;;;3.13;2.93;;;22.80;99.90;;;;;;5054675;28;21036;-76
2023/09/13 20:33:27;;;;;;;3.30;3.00;;;22.80;99.90;;;;;;5034465;28;20486;-77
2023/09/13 20:35:56;;;;;;;5.37;3.37;;;22.80;99.90;;;;;;5022648;28;20421;-76
2023/09/13 20:38:27;;;;;;;2.90;2.70;;;22.80;99.90;;;;;;5022892;28;20938;-77
2023/09/13 20:40:56;;;;;;;3.40;2.60;;;22.80;99.90;;;;;;5031786;28;20446;-77
2023/09/13 20:43:23;;;;;;;4.67;3.17;;;22.80;99.90;;;;;;5013201;28;20430;-77
2023/09/13 20:45:49;;;;;;;3.43;3.00;;;22.80;99.90;;;;;;5042757;28;21270;-77
2023/09/13 20:48:17;;;;;;;4.23;2.90;;;22.80;99.90;;;;;;5037418;28;21004;-76
2023/09/13 20:50:43;;;;;;;3.40;3.10;;;22.80;99.90;;;;;;5052779;28;20509;-77
2023/09/13 20:53:17;;;;;;;3.30;2.70;;;22.80;99.90;;;;;;5007900;28;20974;-77
2023/09/13 20:55:44;;;;;;;2.83;2.63;;;22.80;99.90;;;;;;5020891;28;20434;-77
2023/09/13 20:58:10;;;;;;;4.10;2.57;;;22.70;99.90;;;;;;5025920;28;20468;-76
2023/09/13 21:00:36;;;;;;;2.70;2.50;;;22.80;99.90;;;;;;5010527;28;20477;-76
2023/09/13 21:03:03;;;;;;;2.93;2.73;;;22.80;99.90;;;;;;5004005;28;21112;-77
2023/09/13 21:05:29;;;;;;;2.53;2.33;;;22.70;99.90;;;;;;5050325;28;20421;-77
2023/09/13 21:07:59;;;;;;;3.80;3.17;;;22.70;99.90;;;;;;5023311;28;20430;-77
2023/09/13 21:10:26;;;;;;;3.50;2.90;;;22.70;99.90;;;;;;5043055;28;20449;-77
2023/09/13 21:12:55;;;;;;;2.70;2.50;;;22.70;99.90;;;;;;5025785;28;20477;-77
2023/09/13 21:15:26;;;;;;;3.43;2.67;;;22.80;99.90;;;;;;5021792;28;20446;-77
2023/09/13 21:17:58;;;;;;;2.83;2.60;;;22.80;99.90;;;;;;5007638;28;20456;-77
2023/09/13 21:20:24;;;;;;;4.30;3.17;;;22.70;99.90;;;;;;5038983;28;20462;-77
2023/09/13 21:22:51;;;;;;;2.90;2.70;;;22.70;99.90;;;;;;5029993;28;20421;-77
2023/09/13 21:25:17;;;;;;;3.00;2.70;;;22.80;99.90;;;;;;5026583;28;20799;-77
2023/09/13 21:27:43;;;;;;;3.73;2.97;;;22.70;99.90;;;;;;5012345;28;20466;-77
2023/09/13 21:30:10;;;;;;;3.20;2.90;;;22.70;99.90;;;;;;5029204;28;20452;-77
2023/09/13 21:32:38;;;;;;;3.53;2.83;;;22.60;99.90;;;;;;5034069;28;21022;-77
2023/09/13 21:35:05;;;;;;;4.40;2.80;;;22.70;99.90;;;;;;5020405;28;21229;-77
2023/09/13 21:37:31;;;;;;;3.40;2.40;;;22.70;99.90;;;;;;5040129;28;20485;-77
2023/09/13 21:39:57;;;;;;;2.93;2.60;;;22.70;99.90;;;;;;5022678;28;20481;-77
2023/09/13 21:42:23;;;;;;;3.97;2.63;;;22.70;99.90;;;;;;5056686;28;20452;-77
2023/09/13 21:44:56;;;;;;;3.17;2.90;;;22.60;99.90;;;;;;5020223;28;21016;-77
2023/09/13 21:47:22;;;;;;;3.10;2.90;;;22.60;99.90;;;;;;5037104;28;20449;-77
2023/09/13 21:49:51;;;;;;;5.43;3.33;;;22.60;99.90;;;;;;5007617;28;20498;-77
2023/09/13 21:52:18;;;;;;;3.27;2.60;;;22.60;99.90;;;;;;5008179;28;20499;-77
2023/09/13 21:54:48;;;;;;;3.27;2.93;;;22.70;99.90;;;;;;5049908;28;21302;-76
2023/09/13 21:57:21;;;;;;;4.30;3.03;;;22.50;99.90;;;;;;5024155;28;20430;-77
2023/09/13 21:59:50;;;;;;;3.97;2.73;;;22.60;99.90;;;;;;5022514;28;20466;-78
2023/09/13 22:02:17;;;;;;;2.80;2.60;;;22.60;99.90;;;;;;5022825;28;21001;-77
2023/09/13 22:04:43;;;;;;;4.20;2.80;;;22.60;99.90;;;;;;5006374;28;20450;-76
2023/09/13 22:07:12;;;;;;;3.13;2.93;;;22.60;99.90;;;;;;5053160;28;20433;-76
2023/09/13 22:09:43;;;;;;;3.50;3.20;;;22.50;99.90;;;;;;5046710;28;20509;-72
2023/09/13 22:12:10;;;;;;;2.83;2.63;;;22.60;99.90;;;;;;5020257;28;20704;-71
2023/09/13 22:14:36;;;;;;;3.60;3.30;;;22.50;99.90;;;;;;5019018;28;20437;-72
2023/09/13 22:17:06;;;;;;;3.13;2.93;;;22.60;99.90;;;;;;5043159;28;20464;-71
2023/09/13 22:19:32;;;;;;;4.00;2.90;;;22.60;99.90;;;;;;4997595;28;20478;-72
2023/09/13 22:21:58;;;;;;;2.90;2.70;;;22.50;99.90;;;;;;5036629;28;20434;-72
2023/09/13 22:24:24;;;;;;;3.23;2.93;;;22.50;99.90;;;;;;5037684;28;20441;-72
2023/09/13 22:26:52;;;;;;;3.80;2.73;;;22.50;99.90;;;;;;5013696;28;20440;-72
2023/09/13 22:29:18;;;;;;;3.10;2.80;;;22.40;99.90;;;;;;5019426;28;20573;-73
2023/09/13 22:31:47;;;;;;;3.23;2.93;;;22.40;99.90;;;;;;5024321;28;20469;-76
2023/09/13 22:34:13;;;;;;;3.20;2.90;;;22.40;99.90;;;;;;4998770;28;20447;-77
2023/09/13 22:36:41;;;;;;;3.20;2.90;;;22.40;99.90;;;;;;5019466;28;20523;-77
2023/09/13 22:39:10;;;;;;;3.17;2.80;;;22.50;99.90;;;;;;5019087;28;20470;-77
2023/09/13 22:41:40;;;;;;;3.60;3.00;;;22.50;99.90;;;;;;5019042;28;20816;-77
2023/09/13 22:44:06;;;;;;;4.90;3.27;;;22.40;99.90;;;;;;5019022;28;20463;-77
2023/09/13 22:46:40;;;;;;;4.00;2.73;;;22.40;99.90;;;;;;5020342;28;20469;-76
2023/09/13 22:49:09;;;;;;;2.70;2.50;;;22.40;99.90;;;;;;5007784;28;20434;-77
2023/09/13 22:51:39;;;;;;;3.10;2.77;;;22.40;99.90;;;;;;5025973;28;20836;-77
2023/09/13 22:54:07;;;;;;;4.17;3.13;;;22.40;99.90;;;;;;5025524;28;20642;-77
2023/09/13 22:56:36;;;;;;;6.00;3.70;;;22.30;99.90;;;;;;5030739;28;20426;-76
2023/09/13 22:59:03;;;;;;;3.40;2.87;;;22.40;99.90;;;;;;5039158;28;20671;-77
2023/09/13 23:01:34;;;;;;;3.70;3.00;;;22.30;99.90;;;;;;5025538;28;20426;-76
2023/09/13 23:04:03;;;;;;;3.40;3.07;;;22.30;99.90;;;;;;5047313;28;20432;-76
2023/09/13 23:06:29;;;;;;;3.77;3.20;;;22.30;99.90;;;;;;5049507;28;20450;-77
2023/09/13 23:08:58;;;;;;;3.20;2.57;;;22.30;99.90;;;;;;5041551;28;20469;-77
2023/09/13 23:11:25;;;;;;;4.33;2.77;;;22.30;99.90;;;;;;5053496;28;20442;-77
2023/09/13 23:13:58;;;;;;;6.80;2.63;;;22.30;99.90;;;;;;5005211;28;20460;-76
2023/09/13 23:16:29;;;;;;;2.97;2.70;;;22.30;99.90;;;;;;5030717;28;20454;-77
2023/09/13 23:18:56;;;;;;;3.37;3.00;;;22.30;99.90;;;;;;5030743;28;20541;-76
2023/09/13 23:21:25;;;;;;;3.70;3.40;;;22.30;99.90;;;;;;5021319;28;20932;-77
2023/09/13 23:23:51;;;;;;;3.00;2.80;;;22.30;99.90;;;;;;5021593;28;21213;-76
2023/09/13 23:26:17;;;;;;;3.17;2.87;;;22.20;99.90;;;;;;4991343;23;20502;-77
2023/09/13 23:28:46;;;;;;;5.50;2.80;;;22.20;99.90;;;;;;4980626;28;20452;-77
2023/09/13 23:31:16;;;;;;;3.00;2.80;;;22.20;99.90;;;;;;4979947;28;20528;-77
2023/09/13 23:33:46;;;;;;;2.67;2.30;;;22.20;99.90;;;;;;4946007;28;20480;-77
2023/09/13 23:36:15;;;;;;;6.67;3.30;;;22.20;99.90;;;;;;4978197;28;20429;-77
2023/09/13 23:38:43;;;;;;;4.73;2.50;;;22.20;99.90;;;;;;4962228;28;20487;-77
2023/09/13 23:41:15;;;;;;;2.97;2.70;;;22.20;99.90;;;;;;4978403;28;20507;-77
2023/09/13 23:43:43;;;;;;;5.00;2.90;;;22.10;99.90;;;;;;4962934;28;21877;-77
2023/09/13 23:46:15;;;;;;;4.40;3.70;;;22.10;99.90;;;;;;4976115;28;21073;-77
2023/09/13 23:48:44;;;;;;;3.93;2.97;;;22.20;99.90;;;;;;4979151;28;20955;-77
2023/09/13 23:51:12;;;;;;;3.70;2.50;;;22.10;99.90;;;;;;4978443;28;21208;-77
2023/09/13 23:53:48;;;;;;;3.60;3.00;;;22.10;99.90;;;;;;4978456;28;20546;-77
2023/09/13 23:56:19;;;;;;;3.03;2.73;;;22.10;99.90;;;;;;4969486;28;20428;-77
2023/09/13 23:58:46;;;;;;;6.10;3.20;;;22.10;99.90;;;;;;4978296;28;20475;-77
